Time;durP1;ratioP1;P1;durP2;ratioP2;P2;SDS_P1;SDS_P2;PMS_P1;PMS_P2;Temp;Humidity;BMP_temperature;BMP_pressure;BME280_temperature;BME280_humidity;BME280_pressure;Samples;Min_cycle;Max_cycle;Signal;HPM_P1;HPM_P2
2023/06/21 00:02:03;;;;;;;12.50;11.20;;;;;;;19.57;80.78;100238.27;105179;1258;72078;-64
2023/06/21 00:04:32;;;;;;;12.60;11.40;;;;;;;19.58;80.65;100238.02;105176;1260;83381;-62
2023/06/21 00:07:01;;;;;;;13.10;11.80;;;;;;;19.57;80.56;100241.77;105184;1258;72822;-61
2023/06/21 00:09:29;;;;;;;12.70;11.50;;;;;;;19.54;80.49;100246.11;105187;1260;69115;-60
2023/06/21 00:11:57;;;;;;;13.50;11.00;;;;;;;19.52;80.31;100249.13;105195;1261;69180;-60
2023/06/21 00:14:26;;;;;;;12.40;11.30;;;;;;;19.57;80.07;100249.42;105154;1262;73099;-61
2023/06/21 00:16:54;;;;;;;12.30;11.10;;;;;;;19.65;80.03;100250.96;105194;1257;83888;-60
2023/06/21 00:19:23;;;;;;;14.40;11.80;;;;;;;19.70;79.77;100255.22;105126;1260;73945;-62
2023/06/21 00:21:51;;;;;;;13.10;11.80;;;;;;;19.75;79.65;100252.11;105206;1260;69291;-62
2023/06/21 00:24:20;;;;;;;14.90;12.60;;;;;;;19.84;79.41;100248.23;105156;1256;69258;-62
2023/06/21 00:26:48;;;;;;;16.10;12.90;;;;;;;19.91;79.18;100249.33;105164;1258;74142;-59
2023/06/21 00:29:18;;;;;;;14.30;12.80;;;;;;;19.99;78.91;100243.36;105171;1262;82072;-59
2023/06/21 00:31:46;;;;;;;14.50;12.80;;;;;;;20.06;78.76;100242.05;105118;1257;73780;-60
2023/06/21 00:34:14;;;;;;;13.60;12.20;;;;;;;20.13;78.42;100244.38;105043;1258;69213;-60
2023/06/21 00:36:43;;;;;;;13.30;11.90;;;;;;;20.21;78.31;100247.23;105172;1260;69183;-60
2023/06/21 00:39:11;;;;;;;13.80;12.50;;;;;;;20.29;77.98;100245.77;105167;1256;74254;-61
2023/06/21 00:41:40;;;;;;;15.00;12.50;;;;;;;20.37;77.76;100246.71;105197;1256;83710;-60
2023/06/21 00:44:08;;;;;;;13.80;12.40;;;;;;;20.44;77.56;100246.12;105231;1257;72715;-62
2023/06/21 00:46:39;;;;;;;14.30;12.90;;;;;;;20.51;77.27;100248.46;105163;1261;69129;-61
2023/06/21 00:49:07;;;;;;;16.30;12.60;;;;;;;20.56;77.02;100245.23;105198;1260;69190;-59
2023/06/21 00:51:38;;;;;;;14.90;12.60;;;;;;;20.61;76.75;100243.73;105138;1256;74811;-59
2023/06/21 00:54:07;;;;;;;14.90;12.80;;;;;;;20.66;76.53;100247.44;105090;1258;83479;-60
2023/06/21 00:56:35;;;;;;;14.00;12.60;;;;;;;20.69;76.22;100241.10;105490;1257;73713;-59
2023/06/21 00:59:04;;;;;;;14.20;12.60;;;;;;;20.71;75.92;100237.73;105410;1253;69203;-60
2023/06/21 01:01:34;;;;;;;14.80;13.30;;;;;;;20.73;75.79;100236.74;105483;1253;69182;-64
2023/06/21 01:04:03;;;;;;;13.60;12.20;;;;;;;20.73;75.54;100228.73;105581;1253;74085;-62
2023/06/21 01:06:50;;;;;;;14.30;12.90;;;;;;;20.74;75.39;100227.59;105631;1254;81935;-64
2023/06/21 01:09:29;;;;;;;16.10;12.30;;;;;;;20.73;75.15;100224.31;105594;1253;72715;-59
2023/06/21 01:12:15;;;;;;;14.50;13.00;;;;;;;20.71;75.07;100219.80;105602;1253;69180;-62
2023/06/21 01:14:59;;;;;;;14.30;12.60;;;;;;;20.71;74.99;100217.19;105501;1253;69241;-59
2023/06/21 01:17:29;;;;;;;14.10;12.40;;;;;;;20.67;74.84;100219.61;105611;1253;73992;-60
2023/06/21 01:19:58;;;;;;;13.40;12.10;;;;;;;20.63;74.76;100222.63;105625;1256;83262;-61
2023/06/21 01:22:57;;;;;;;14.60;13.10;;;;;;;20.60;74.72;100223.02;105496;1254;73654;-59
2023/06/21 01:25:52;;;;;;;13.90;12.50;;;;;;;20.57;74.64;100220.80;105466;1254;69186;-64
2023/06/21 01:28:53;;;;;;;13.20;12.00;;;;;;;20.54;74.72;100218.42;105552;1253;69298;-60
2023/06/21 01:31:22;;;;;;;14.00;12.60;;;;;;;20.51;74.65;100226.06;105312;1253;73230;-59
2023/06/21 01:33:51;;;;;;;14.50;13.10;;;;;;;20.49;74.67;100229.24;105501;1254;81559;-63
2023/06/21 01:36:21;;;;;;;13.60;12.20;;;;;;;20.46;74.61;100226.83;105660;1253;72977;-61
2023/06/21 01:38:56;;;;;;;14.90;13.30;;;;;;;20.43;74.73;100223.86;105486;1256;69186;-61
2023/06/21 01:41:28;;;;;;;13.60;12.20;;;;;;;20.42;74.72;100220.09;105474;1253;69134;-61
2023/06/21 01:43:58;;;;;;;14.00;12.60;;;;;;;20.41;74.77;100219.71;105559;1252;73176;-60
2023/06/21 01:46:27;;;;;;;14.80;13.30;;;;;;;20.43;74.79;100218.59;105484;1257;82529;-60
2023/06/21 01:48:58;;;;;;;13.60;12.20;;;;;;;20.43;74.85;100219.98;105484;1257;73893;-61
2023/06/21 01:51:27;;;;;;;14.30;12.90;;;;;;;20.44;74.78;100219.71;105475;1252;69039;-63
2023/06/21 01:53:56;;;;;;;13.80;12.30;;;;;;;20.43;74.82;100215.17;105648;1256;69214;-62
2023/06/21 01:56:25;;;;;;;15.40;12.70;;;;;;;20.41;74.78;100215.52;105412;1253;74299;-59
2023/06/21 01:58:54;;;;;;;14.40;13.00;;;;;;;20.39;74.76;100210.92;105506;1253;82703;-61
2023/06/21 02:01:26;;;;;;;13.70;12.30;;;;;;;20.36;74.68;100213.11;105452;1257;73947;-60
2023/06/21 02:04:00;;;;;;;13.90;12.50;;;;;;;20.33;74.72;100217.61;105491;1253;69171;-60
2023/06/21 02:06:30;;;;;;;13.30;12.00;;;;;;;20.31;74.89;100218.63;105559;1253;69154;-58
2023/06/21 02:09:00;;;;;;;12.90;11.60;;;;;;;20.30;74.92;100219.07;105507;1253;73145;-60
2023/06/21 02:11:28;;;;;;;14.00;12.40;;;;;;;20.31;75.07;100220.08;105494;1257;82495;-59
2023/06/21 02:13:58;;;;;;;;;;;;;;;20.31;75.12;100216.13;105591;1254;73913;-59
2023/06/21 02:16:28;;;;;;;14.40;12.40;;;;;;;20.32;75.13;100212.91;105572;1253;69426;-61
2023/06/21 02:19:00;;;;;;;13.20;11.90;;;;;;;20.32;75.12;100209.88;105590;1254;69521;-60
2023/06/21 02:21:28;;;;;;;13.50;12.40;;;;;;;20.34;75.23;100210.64;105619;1254;73303;-63
2023/06/21 02:23:57;;;;;;;13.50;12.10;;;;;;;20.34;75.17;100209.36;105562;1256;83652;-60
2023/06/21 02:26:25;;;;;;;16.00;13.80;;;;;;;20.35;75.17;100213.38;105632;1253;73962;-61
2023/06/21 02:28:54;;;;;;;14.30;12.80;;;;;;;20.35;75.19;100213.36;105544;1253;69070;-60
2023/06/21 02:31:22;;;;;;;13.10;11.80;;;;;;;20.36;75.16;100215.77;105580;1253;69277;-61
2023/06/21 02:33:50;;;;;;;12.80;11.50;;;;;;;20.36;75.21;100217.87;105641;1254;74281;-60
2023/06/21 02:36:19;;;;;;;14.50;13.00;;;;;;;20.36;75.29;100217.50;105494;1254;82506;-61
2023/06/21 02:38:48;;;;;;;13.70;12.40;;;;;;;20.36;75.31;100219.09;105605;1253;72821;-59
2023/06/21 02:41:16;;;;;;;14.30;12.90;;;;;;;20.37;75.39;100215.86;105452;1253;69422;-60
2023/06/21 02:43:44;;;;;;;13.50;12.20;;;;;;;20.38;75.40;100213.13;105442;1254;69097;-61
2023/06/21 02:46:13;;;;;;;14.10;12.70;;;;;;;20.39;75.40;100213.36;105479;1253;73973;-59
2023/06/21 02:48:41;;;;;;;14.10;12.70;;;;;;;20.40;75.40;100223.05;105584;1256;83710;-61
2023/06/21 02:51:09;;;;;;;15.80;13.30;;;;;;;20.41;75.39;100225.86;105530;1255;72798;-63
2023/06/21 02:53:38;;;;;;;13.40;12.00;;;;;;;20.41;75.43;100227.98;105532;1253;69208;-60
2023/06/21 02:56:06;;;;;;;14.00;12.70;;;;;;;20.42;75.45;100222.55;105590;1253;69218;-63
2023/06/21 02:58:34;;;;;;;13.80;12.30;;;;;;;20.42;75.49;100219.67;105560;1256;73425;-60
2023/06/21 03:01:03;;;;;;;14.00;12.70;;;;;;;20.43;75.49;100219.08;105604;1255;83341;-60
2023/06/21 03:03:32;;;;;;;14.60;13.10;;;;;;;20.43;75.47;100222.23;105554;1252;72798;-59
2023/06/21 03:06:03;;;;;;;14.90;13.30;;;;;;;20.44;75.53;100226.98;105605;1253;69077;-59
2023/06/21 03:08:31;;;;;;;14.00;12.60;;;;;;;20.45;75.60;100229.76;105480;1255;69021;-61
2023/06/21 03:11:00;;;;;;;15.20;12.60;;;;;;;20.45;75.57;100230.59;105645;1255;73350;-58
2023/06/21 03:13:29;;;;;;;15.40;13.30;;;;;;;20.47;75.61;100229.06;105595;1253;82527;-59
2023/06/21 03:15:57;;;;;;;14.80;13.30;;;;;;;20.49;75.63;100234.35;105549;1256;73178;-60
2023/06/21 03:18:26;;;;;;;14.10;12.70;;;;;;;20.51;75.63;100240.25;105603;1253;69180;-61
2023/06/21 03:20:54;;;;;;;17.50;13.30;;;;;;;20.52;75.69;100244.78;105641;1252;69212;-60
2023/06/21 03:23:23;;;;;;;14.60;13.20;;;;;;;20.54;75.68;100249.64;105553;1253;74055;-59
2023/06/21 03:25:51;;;;;;;14.20;12.20;;;;;;;20.56;75.70;100247.85;105368;1257;83742;-59
2023/06/21 03:28:19;;;;;;;14.40;13.00;;;;;;;20.58;75.61;100249.80;105562;1253;72621;-59
2023/06/21 03:30:48;;;;;;;16.40;12.90;;;;;;;20.61;75.76;100253.16;105542;1253;69094;-59
2023/06/21 03:33:17;;;;;;;14.00;12.50;;;;;;;20.63;75.67;100253.02;105518;1253;69011;-64
2023/06/21 03:35:46;;;;;;;14.20;12.70;;;;;;;20.66;75.66;100251.98;105471;1256;74051;-59
2023/06/21 03:38:15;;;;;;;15.40;13.90;;;;;;;20.70;75.70;100244.62;105640;1253;82480;-63
2023/06/21 03:40:43;;;;;;;15.90;12.30;;;;;;;20.73;75.67;100240.64;105545;1255;72948;-59
2023/06/21 03:43:13;;;;;;;14.30;13.00;;;;;;;20.76;75.66;100242.02;105595;1253;69178;-60
2023/06/21 03:45:43;;;;;;;14.60;13.10;;;;;;;20.79;75.59;100244.63;105574;1253;69011;-59
2023/06/21 03:48:11;;;;;;;15.70;13.80;;;;;;;20.80;75.53;100241.85;105609;1256;74244;-63
2023/06/21 03:50:40;;;;;;;15.20;13.70;;;;;;;20.82;75.50;100241.32;105624;1256;83661;-59
2023/06/21 03:53:08;;;;;;;15.10;13.50;;;;;;;20.84;75.57;100239.21;105649;1255;72827;-60
2023/06/21 03:55:37;;;;;;;15.50;13.90;;;;;;;20.85;75.49;100234.52;105533;1256;69578;-62
2023/06/21 03:58:07;;;;;;;13.90;12.60;;;;;;;20.86;75.56;100234.58;105424;1253;69069;-59
2023/06/21 04:00:36;;;;;;;14.10;12.80;;;;;;;20.88;75.65;100235.08;105610;1256;74606;-60
2023/06/21 04:03:04;;;;;;;14.50;13.10;;;;;;;20.91;75.62;100234.55;105425;1253;83639;-62
2023/06/21 04:05:33;;;;;;;16.20;13.30;;;;;;;20.94;75.75;100231.23;105606;1256;73916;-61
2023/06/21 04:08:03;;;;;;;15.10;13.60;;;;;;;20.96;75.80;100222.20;105386;1253;69269;-60
2023/06/21 04:10:34;;;;;;;14.40;13.00;;;;;;;20.99;75.94;100217.89;105593;1253;69114;-62
2023/06/21 04:13:02;;;;;;;18.50;13.30;;;;;;;21.01;75.98;100219.35;105586;1252;73049;-63
2023/06/21 04:15:33;;;;;;;13.90;12.50;;;;;;;21.00;76.10;100225.64;105617;1255;83369;-60
2023/06/21 04:18:01;;;;;;;15.50;13.00;;;;;;;20.97;76.32;100245.55;105582;1253;72594;-61
2023/06/21 04:20:31;;;;;;;14.50;13.00;;;;;;;20.98;76.26;100278.87;105550;1254;69125;-61
2023/06/21 04:23:00;;;;;;;14.50;12.60;;;;;;;20.98;76.35;100298.42;105572;1253;69135;-61
2023/06/21 04:25:28;;;;;;;13.80;12.40;;;;;;;21.00;76.34;100311.78;105441;1257;74133;-61
2023/06/21 04:27:57;;;;;;;14.80;12.20;;;;;;;21.02;76.22;100319.45;105442;1255;83092;-61
2023/06/21 04:30:25;;;;;;;15.00;12.90;;;;;;;21.01;76.10;100322.20;105570;1253;73001;-64
2023/06/21 04:32:54;;;;;;;14.60;13.30;;;;;;;21.00;76.12;100332.55;105600;1252;69202;-61
2023/06/21 04:35:22;;;;;;;14.70;12.90;;;;;;;21.02;76.27;100337.54;105608;1255;69190;-59
2023/06/21 04:37:51;;;;;;;14.10;12.70;;;;;;;21.06;76.29;100343.25;105564;1255;73323;-61
2023/06/21 04:40:21;;;;;;;15.70;12.70;;;;;;;21.09;76.21;100344.98;105599;1253;83306;-60
2023/06/21 04:42:54;;;;;;;14.00;12.60;;;;;;;21.11;76.20;100349.24;105577;1251;74316;-60
2023/06/21 04:45:25;;;;;;;14.00;12.60;;;;;;;21.13;76.11;100351.92;105660;1253;69637;-58
2023/06/21 04:47:57;;;;;;;14.30;12.90;;;;;;;21.14;76.04;100355.05;105608;1256;69114;-60
2023/06/21 04:50:27;;;;;;;16.20;13.30;;;;;;;21.14;75.94;100343.13;105596;1253;74033;-60
2023/06/21 04:52:59;;;;;;;13.70;12.30;;;;;;;21.14;76.05;100336.52;105645;1256;82294;-59
2023/06/21 04:55:28;;;;;;;13.80;12.30;;;;;;;21.17;76.11;100336.88;105543;1253;72860;-61
2023/06/21 04:57:58;;;;;;;14.60;13.00;;;;;;;21.18;76.41;100331.05;105553;1253;69210;-59
2023/06/21 05:00:28;;;;;;;14.00;12.60;;;;;;;21.18;76.33;100330.92;105581;1253;69226;-60
2023/06/21 05:02:58;;;;;;;14.10;12.70;;;;;;;21.18;76.46;100327.55;105578;1250;73991;-59
2023/06/21 05:05:26;;;;;;;14.50;13.00;;;;;;;21.19;76.57;100323.42;105614;1256;83744;-59
2023/06/21 05:07:55;;;;;;;13.40;12.10;;;;;;;21.20;76.79;100322.55;105581;1252;73695;-58
2023/06/21 05:10:23;;;;;;;14.70;13.10;;;;;;;21.23;77.01;100316.46;105503;1253;69267;-62
2023/06/21 05:12:52;;;;;;;13.70;12.30;;;;;;;21.22;77.14;100314.71;105571;1253;69141;-59
2023/06/21 05:15:20;;;;;;;13.70;12.30;;;;;;;21.22;77.48;100312.30;105511;1256;73295;-61
2023/06/21 05:17:49;;;;;;;14.90;13.20;;;;;;;21.19;77.67;100313.92;105535;1253;83509;-63
2023/06/21 05:20:19;;;;;;;14.40;12.90;;;;;;;21.17;77.96;100312.65;105449;1256;73204;-61
2023/06/21 05:22:48;;;;;;;15.60;12.20;;;;;;;21.15;78.26;100310.02;105596;1254;69204;-60
2023/06/21 05:25:17;;;;;;;14.50;12.90;;;;;;;21.10;78.30;100307.16;105588;1255;69553;-59
2023/06/21 05:27:45;;;;;;;15.50;13.60;;;;;;;21.06;78.35;100307.86;105535;1251;73173;-63
2023/06/21 05:30:14;;;;;;;15.80;13.00;;;;;;;21.01;78.34;100313.98;105553;1253;81644;-57
2023/06/21 05:32:42;;;;;;;14.20;12.70;;;;;;;20.96;78.49;100316.00;105521;1253;71759;-55
2023/06/21 05:35:11;;;;;;;18.10;14.60;;;;;;;20.89;78.71;100323.14;105575;1253;69289;-54
2023/06/21 05:37:39;;;;;;;18.10;14.60;;;;;;;20.79;78.95;100314.91;105588;1253;69977;-53
2023/06/21 05:40:09;;;;;;;17.20;14.10;;;;;;;20.69;79.49;100313.58;105489;1257;73060;-54
2023/06/21 05:42:38;;;;;;;16.40;14.50;;;;;;;20.60;80.00;100301.87;105548;1253;83541;-53
2023/06/21 05:45:08;;;;;;;17.60;14.40;;;;;;;20.48;80.23;100288.20;105562;1253;72793;-53
2023/06/21 05:47:36;;;;;;;14.90;13.40;;;;;;;20.41;80.84;100287.59;105574;1257;69892;-52
2023/06/21 05:50:05;;;;;;;16.40;14.60;;;;;;;20.34;81.50;100282.65;105509;1253;69210;-53
2023/06/21 05:52:34;;;;;;;15.30;13.70;;;;;;;20.27;81.73;100285.88;105580;1253;74206;-55
2023/06/21 05:55:03;;;;;;;16.00;14.40;;;;;;;20.20;82.13;100289.09;105701;1253;82659;-52
2023/06/21 05:57:32;;;;;;;18.20;14.50;;;;;;;20.15;82.69;100291.61;105760;1253;72725;-56
2023/06/21 06:00:01;;;;;;;22.50;14.30;;;;;;;20.09;83.10;100294.92;105765;1255;69216;-54
2023/06/21 06:02:40;;;;;;;16.10;13.60;;;;;;;20.03;83.53;100291.33;105510;1254;69842;-52
2023/06/21 06:05:10;;;;;;;16.40;14.60;;;;;;;20.01;84.00;100292.85;105634;1257;74013;-49
2023/06/21 06:07:38;;;;;;;15.40;13.90;;;;;;;20.04;84.48;100288.37;105471;1253;302642;-49
2023/06/21 06:10:08;;;;;;;14.50;13.10;;;;;;;20.09;85.04;100295.95;105554;1252;73805;-55
2023/06/21 06:12:36;;;;;;;18.60;13.80;;;;;;;20.17;85.46;100310.36;105641;1257;69936;-51
2023/06/21 06:15:05;;;;;;;14.60;12.70;;;;;;;20.24;85.67;100320.63;105607;1255;69073;-53
2023/06/21 06:17:34;;;;;;;16.20;14.50;;;;;;;20.32;85.78;100341.02;105770;1252;72867;-53
2023/06/21 06:20:05;;;;;;;17.70;14.20;;;;;;;20.37;85.72;100353.89;105533;1258;83679;-50
2023/06/21 06:22:35;;;;;;;17.00;13.30;;;;;;;20.41;85.79;100346.30;105559;1254;73411;-55
2023/06/21 06:25:04;;;;;;;15.10;13.50;;;;;;;20.51;86.37;100351.77;105632;1253;69216;-50
2023/06/21 06:27:32;;;;;;;17.10;13.30;;;;;;;20.62;86.44;100371.30;105662;1257;69195;-53
2023/06/21 06:30:02;;;;;;;17.70;13.50;;;;;;;20.70;86.89;100379.67;105647;1253;74159;-50
2023/06/21 06:32:30;;;;;;;;;;;;;;;20.77;86.93;100385.06;105623;1253;83394;-53
2023/06/21 06:34:59;;;;;;;16.00;13.30;;;;;;;20.80;87.43;100376.42;105503;1258;73164;-52
2023/06/21 06:37:28;;;;;;;16.20;13.30;;;;;;;20.84;87.17;100385.19;105551;1253;69125;-51
2023/06/21 06:39:59;;;;;;;21.80;14.90;;;;;;;20.83;87.27;100388.43;105589;1256;69177;-55
2023/06/21 06:42:28;;;;;;;16.10;13.50;;;;;;;20.74;87.50;100396.08;105775;1253;73891;-55
2023/06/21 06:44:56;;;;;;;17.10;13.40;;;;;;;20.62;87.81;100392.63;105538;1257;83744;-53
2023/06/21 06:47:28;;;;;;;20.80;14.10;;;;;;;20.51;88.10;100394.32;105535;1256;73708;-53
2023/06/21 06:49:57;;;;;;;16.80;14.90;;;;;;;20.43;88.86;100392.82;105571;1256;70006;-54
2023/06/21 06:52:25;;;;;;;20.80;14.20;;;;;;;20.40;89.40;100388.98;105486;1257;69210;-49
2023/06/21 06:54:54;;;;;;;16.30;14.60;;;;;;;20.38;89.92;100393.58;105499;1257;72530;-53
2023/06/21 06:57:23;;;;;;;16.30;14.70;;;;;;;20.38;90.33;100399.48;105493;1257;83406;-51
2023/06/21 07:00:10;;;;;;;17.60;14.20;;;;;;;20.42;91.06;100402.13;105495;1256;72768;-51
2023/06/21 07:02:38;;;;;;;16.20;14.10;;;;;;;20.49;91.58;100409.59;105499;1253;69129;-56
2023/06/21 07:05:07;;;;;;;20.80;15.70;;;;;;;20.52;91.83;100419.64;105606;1253;69180;-56
2023/06/21 07:07:36;;;;;;;17.00;15.30;;;;;;;20.53;92.13;100425.60;105475;1253;74255;-55
2023/06/21 07:10:05;;;;;;;19.20;16.20;;;;;;;20.54;92.32;100429.48;105737;1255;83554;-58
2023/06/21 07:12:34;;;;;;;16.80;15.10;;;;;;;20.55;92.39;100428.11;105711;1253;72623;-57
2023/06/21 07:15:03;;;;;;;19.20;14.30;;;;;;;20.58;92.38;100422.27;105708;1253;69509;-65
2023/06/21 07:17:31;;;;;;;18.70;15.20;;;;;;;20.59;92.55;100423.89;105623;1256;69215;-59
2023/06/21 07:20:00;;;;;;;16.90;15.10;;;;;;;20.65;93.04;100425.92;105527;1255;72177;-62
2023/06/21 07:22:29;;;;;;;18.00;15.60;;;;;;;20.73;92.80;100425.63;105544;1256;83721;-59
2023/06/21 07:24:57;;;;;;;17.90;16.20;;;;;;;20.83;93.10;100426.81;105526;1253;72776;-60
2023/06/21 07:27:26;;;;;;;18.60;16.40;;;;;;;20.91;93.16;100428.86;105541;1253;69116;-60
2023/06/21 07:29:55;;;;;;;18.30;16.40;;;;;;;20.95;93.27;100429.42;105590;1255;69206;-62
2023/06/21 07:32:23;;;;;;;17.40;15.60;;;;;;;20.98;92.95;100429.70;105574;1251;74049;-59
2023/06/21 07:34:59;;;;;;;17.00;15.30;;;;;;;21.03;92.94;100429.17;105546;1255;83629;-60
2023/06/21 07:37:29;;;;;;;17.80;15.90;;;;;;;21.06;92.80;100425.67;105515;1253;73747;-58
2023/06/21 07:39:58;;;;;;;17.10;15.10;;;;;;;21.08;93.14;100426.61;105579;1253;69174;-60
2023/06/21 07:42:26;;;;;;;17.70;15.80;;;;;;;21.09;93.28;100430.23;105618;1253;69091;-58
2023/06/21 07:44:55;;;;;;;18.40;16.20;;;;;;;21.07;93.17;100434.10;105572;1253;73990;-59
2023/06/21 07:47:24;;;;;;;20.50;16.10;;;;;;;21.05;93.32;100432.72;105562;1256;83530;-62
2023/06/21 07:49:52;;;;;;;17.50;15.70;;;;;;;21.04;93.67;100432.63;105614;1255;73674;-60
2023/06/21 07:52:21;;;;;;;18.00;15.90;;;;;;;21.07;94.23;100439.30;105564;1251;69187;-58
2023/06/21 07:54:50;;;;;;;20.00;17.20;;;;;;;21.09;94.39;100440.34;105590;1256;69145;-60
2023/06/21 07:57:19;;;;;;;19.40;17.30;;;;;;;21.06;94.10;100437.92;105561;1256;73286;-62
2023/06/21 07:59:47;;;;;;;18.70;16.70;;;;;;;21.01;94.34;100436.75;105537;1255;83572;-58
2023/06/21 08:02:18;;;;;;;20.10;16.80;;;;;;;21.01;94.86;100442.23;105587;1253;73415;-60
2023/06/21 08:04:47;;;;;;;18.00;16.10;;;;;;;21.06;95.04;100447.87;105573;1255;69203;-61
2023/06/21 08:07:16;;;;;;;18.90;16.50;;;;;;;21.10;95.06;100446.27;105538;1253;69176;-60
2023/06/21 08:09:44;;;;;;;19.30;16.40;;;;;;;21.18;95.26;100449.11;105587;1256;73673;-59
2023/06/21 08:12:13;;;;;;;18.80;16.40;;;;;;;21.27;95.15;100455.39;105514;1253;81384;-60
2023/06/21 08:14:42;;;;;;;19.70;16.60;;;;;;;21.38;95.16;100461.73;105519;1253;73891;-59
2023/06/21 08:17:10;;;;;;;18.20;16.40;;;;;;;21.45;95.12;100464.17;105555;1255;69190;-62
2023/06/21 08:19:39;;;;;;;18.50;16.40;;;;;;;21.55;95.24;100465.41;105524;1253;69082;-61
2023/06/21 08:22:08;;;;;;;19.30;17.20;;;;;;;21.72;95.14;100460.66;105520;1253;74225;-58
2023/06/21 08:24:36;;;;;;;20.00;17.90;;;;;;;21.88;95.37;100463.92;105555;1255;82537;-59
2023/06/21 08:27:05;;;;;;;19.50;17.60;;;;;;;22.06;95.45;100465.46;105631;1253;73651;-58
2023/06/21 08:29:34;;;;;;;20.50;18.00;;;;;;;22.25;95.66;100463.73;105578;1253;69180;-59
2023/06/21 08:32:04;;;;;;;21.50;17.20;;;;;;;22.38;95.32;100468.16;105558;1256;69280;-60
2023/06/21 08:34:33;;;;;;;19.90;17.80;;;;;;;22.48;95.45;100474.08;105596;1256;73439;-61
2023/06/21 08:37:01;;;;;;;17.90;16.00;;;;;;;22.56;95.44;100477.63;105482;1253;81428;-62
2023/06/21 08:39:30;;;;;;;17.40;15.60;;;;;;;22.67;95.30;100488.27;105513;1256;73054;-62
2023/06/21 08:41:59;;;;;;;18.40;16.40;;;;;;;22.81;95.76;100489.17;105574;1256;69227;-61
2023/06/21 08:44:28;;;;;;;16.90;15.10;;;;;;;22.99;95.89;100488.57;105521;1254;69116;-61
2023/06/21 08:47:00;;;;;;;16.80;15.00;;;;;;;23.18;95.85;100487.80;105553;1253;73039;-63
2023/06/21 08:49:29;;;;;;;17.10;15.40;;;;;;;23.39;95.55;100488.21;105554;1255;83845;-61
2023/06/21 08:51:59;;;;;;;15.00;13.60;;;;;;;23.53;95.07;100491.60;105556;1256;71770;-60
2023/06/21 08:54:29;;;;;;;16.10;14.00;;;;;;;23.71;95.09;100491.20;105511;1258;69225;-59
2023/06/21 08:57:03;;;;;;;14.70;13.10;;;;;;;23.94;94.85;100495.18;105540;1253;69029;-60
2023/06/21 08:59:41;;;;;;;16.60;13.40;;;;;;;24.14;93.82;100494.76;105508;1254;73325;-59
2023/06/21 09:02:36;;;;;;;15.40;13.80;;;;;;;24.36;93.26;100500.23;105522;1253;83460;-61
2023/06/21 09:05:09;;;;;;;16.30;14.00;;;;;;;24.64;92.29;100501.39;105532;1256;72538;-60
2023/06/21 09:07:39;;;;;;;14.70;13.20;;;;;;;24.83;90.42;100504.07;105517;1255;69181;-58
2023/06/21 09:10:09;;;;;;;15.40;13.60;;;;;;;24.98;89.13;100499.95;105556;1255;69848;-60
2023/06/21 09:12:37;;;;;;;;;;;;;;;25.02;88.04;100495.79;105603;1257;74061;-60
2023/06/21 09:15:08;;;;;;;14.80;12.90;;;;;;;25.07;87.83;100491.89;105515;1253;82894;-61
2023/06/21 09:17:37;;;;;;;18.30;13.10;;;;;;;25.16;87.44;100490.71;105528;1253;73967;-59
2023/06/21 09:20:06;;;;;;;15.00;13.50;;;;;;;25.36;88.09;100491.05;105553;1253;69165;-60
2023/06/21 09:22:34;;;;;;;15.70;13.60;;;;;;;25.58;87.56;100494.67;105477;1253;69286;-60
2023/06/21 09:25:03;;;;;;;14.50;13.00;;;;;;;25.72;86.64;100489.73;105508;1256;74313;-60
2023/06/21 09:27:31;;;;;;;15.50;14.10;;;;;;;25.78;85.37;100496.10;105573;1253;83492;-60
2023/06/21 09:30:00;;;;;;;15.10;13.50;;;;;;;25.75;84.96;100495.30;105490;1259;72838;-62
2023/06/21 09:32:49;;;;;;;15.90;14.30;;;;;;;25.80;84.45;100495.66;105523;1253;69282;-60
2023/06/21 09:35:18;;;;;;;14.50;12.00;;;;;;;25.91;84.82;100493.88;105542;1253;69661;-59
2023/06/21 09:37:46;;;;;;;14.40;12.60;;;;;;;26.04;84.11;100485.38;105533;1254;74094;-59
2023/06/21 09:40:15;;;;;;;13.40;12.00;;;;;;;26.17;83.14;100486.98;105476;1253;82542;-60
2023/06/21 09:42:46;;;;;;;14.60;13.20;;;;;;;26.32;82.67;100487.48;105530;1256;72819;-60
2023/06/21 09:45:18;;;;;;;14.80;13.20;;;;;;;26.47;82.12;100482.70;105496;1253;69194;-62
2023/06/21 09:47:47;;;;;;;14.50;12.30;;;;;;;26.58;81.53;100477.45;105539;1253;69177;-61
2023/06/21 09:50:16;;;;;;;14.60;13.20;;;;;;;26.78;81.97;100477.66;105578;1255;73696;-59
2023/06/21 09:52:45;;;;;;;15.50;12.80;;;;;;;27.01;81.40;100473.87;105497;1253;82581;-62
2023/06/21 09:55:15;;;;;;;14.50;12.90;;;;;;;27.20;81.22;100481.77;105564;1253;72832;-61
2023/06/21 09:57:44;;;;;;;16.90;13.00;;;;;;;27.39;80.20;100478.95;105542;1255;69148;-61
2023/06/21 10:00:14;;;;;;;13.80;12.20;;;;;;;27.54;79.78;100477.03;105580;1253;69529;-60
2023/06/21 10:02:43;;;;;;;14.20;12.40;;;;;;;27.71;79.22;100473.09;105533;1254;73064;-60
2023/06/21 10:05:16;;;;;;;13.80;12.40;;;;;;;27.90;78.63;100472.06;105588;1255;81640;-60
2023/06/21 10:07:46;;;;;;;15.00;13.40;;;;;;;28.06;77.72;100474.41;105519;1253;73719;-61
2023/06/21 10:10:15;;;;;;;14.30;12.90;;;;;;;28.18;76.79;100470.58;105550;1253;69210;-60
2023/06/21 10:12:53;;;;;;;14.10;12.70;;;;;;;28.27;75.71;100465.55;105571;1253;69207;-60
2023/06/21 10:15:23;;;;;;;13.30;12.00;;;;;;;28.30;74.98;100464.66;105559;1255;73230;-63
2023/06/21 10:17:52;;;;;;;13.90;12.30;;;;;;;28.41;74.73;100462.58;105542;1256;82744;-59
2023/06/21 10:20:24;;;;;;;14.60;12.40;;;;;;;28.58;73.89;100463.73;105052;1261;73881;-59
2023/06/21 10:22:53;;;;;;;13.50;12.00;;;;;;;28.77;73.82;100460.85;105049;1259;69375;-63
2023/06/21 10:25:21;;;;;;;;;;;;;;;29.03;73.48;100451.62;105085;1261;69140;-58
2023/06/21 10:27:51;;;;;;;13.20;11.90;;;;;;;29.33;72.51;100452.50;105025;1263;73607;-59
2023/06/21 10:30:22;;;;;;;13.10;11.80;;;;;;;29.50;71.66;100451.74;105033;1264;83456;-60
2023/06/21 10:32:51;;;;;;;12.90;11.40;;;;;;;29.67;70.73;100448.39;105048;1261;74115;-63
2023/06/21 10:35:22;;;;;;;16.30;12.30;;;;;;;29.96;70.71;100440.75;105031;1258;69094;-60
2023/06/21 10:38:13;;;;;;;13.20;11.80;;;;;;;30.35;69.89;100436.73;105136;1252;69273;-63
2023/06/21 10:40:41;;;;;;;13.80;11.20;;;;;;;30.69;68.98;100438.61;105558;1255;73506;-62
2023/06/21 10:43:10;;;;;;;12.50;11.30;;;;;;;30.97;68.19;100438.59;105541;1259;83786;-61
2023/06/21 10:45:40;;;;;;;12.40;11.10;;;;;;;31.14;66.74;100441.37;105532;1255;73573;-60
2023/06/21 10:48:11;;;;;;;12.80;11.40;;;;;;;31.37;66.26;100437.74;105536;1253;69089;-60
2023/06/21 10:50:43;;;;;;;12.10;10.70;;;;;;;31.47;65.06;100437.11;105566;1255;69247;-60
2023/06/21 10:53:13;;;;;;;;;;;;;;;31.56;64.19;100435.37;105573;1254;73838;-58
2023/06/21 10:55:41;;;;;;;13.10;11.30;;;;;;;31.59;63.41;100439.77;105583;1255;83689;-58
2023/06/21 10:58:10;;;;;;;;;;;;;;;31.52;63.03;100439.91;105636;1253;73977;-62
2023/06/21 11:00:41;;;;;;;11.70;10.50;;;;;;;31.77;63.51;100435.70;105553;1256;69159;-61
2023/06/21 11:03:15;;;;;;;12.00;10.80;;;;;;;32.13;62.76;100443.95;105557;1253;69225;-62
2023/06/21 11:05:44;;;;;;;12.70;10.40;;;;;;;32.50;61.88;100435.91;105586;1255;74268;-63
2023/06/21 11:08:14;;;;;;;14.40;10.30;;;;;;;32.91;60.75;100431.09;105555;1256;83527;-59
2023/06/21 11:10:50;;;;;;;11.10;9.70;;;;;;;33.26;59.60;100429.15;105539;1253;73435;-60
2023/06/21 11:13:34;;;;;;;11.40;10.30;;;;;;;33.64;59.07;100427.55;105496;1255;69131;-61
2023/06/21 11:16:14;;;;;;;10.80;9.60;;;;;;;33.98;57.95;100425.27;105512;1253;69187;-60
2023/06/21 11:18:50;;;;;;;12.50;10.20;;;;;;;34.43;57.37;100431.35;105429;1259;73154;-63